AirNav   Air Wisconsin pilot careers
 
 631 users online  

0B1 Bethel Regional Airport
Bethel, Maine, USA

GOING TO BETHEL?


FAA INFORMATION EFFECTIVE 07 DECEMBER 2017

Location

FAA Identifier: 0B1
Lat/Long: 44-25-30.6000N / 070-48-35.7000W
44-25.510000N / 070-48.595000W
44.4251667 / -70.8099167
(estimated)
Elevation: 674 ft. / 205.4 m (surveyed)
Variation: 17W (1985)
From city: 2 miles NW of BETHEL, ME
Time zone: UTC -5 (UTC -4 during Daylight Saving Time)
Zip code: 04217

Airport Operations

Airport use: Open to the public
Activation date: 12/2001
Control tower: no
ARTCC: BOSTON CENTER
FSS: BANGOR FLIGHT SERVICE STATION
NOTAMs facility: BGR (NOTAM-D service available)
Attendance: UNATNDD
Wind indicator: lighted, LGTD WINDSOCK AND APRON LGHTS ON CONTINUOUSLY AT NIGHT.
Segmented circle: yes
Lights: ACTVT MIRL RY 14/32 PCL- KEY FREQ 122.9 7 TIMES HIGH, 5 TIMES MEDIUM, 3 TIMES LOW INTENSITY.
Beacon: white-green (lighted land airport)
Operates sunset to sunrise.

Airport Communications

CTAF: 122.9
WX AWOS-AV: 122.9 (207-512-2516)
APPROACH: 128.35
DEPARTURE: 128.35
WX ASOS at BML (18 nm NW): 135.175 (603-449-3328)
  • CLNC DLVY THRU FLIGHT SERVICES 1-800-WX-BRIEF.

Nearby radio navigation aids

VOR radial/distance  VOR name  Freq  Var
BMLr145/20.4BERLIN VOR/DME110.4017W

 
NDB name  Hdg/Dist  Freq  Var  ID
RANGELEY203/30.722118WRQM .-. --.- --
MAHN101/37.738617WGMA --. -- .-

Airport Services

Fuel available: 100LL
SELF-SERVE AVBL 24 HRS WITH CREDIT CARD.
Parking: tiedowns
Airframe service: NONE
Powerplant service: NONE
Bottled oxygen: NONE
Bulk oxygen: NONE

Runway Information

Runway 14/32

Dimensions: 3818 x 75 ft. / 1164 x 23 m
Surface: asphalt, in good condition
Runway edge lights: low intensity
Gradient: NW
RUNWAY 14  RUNWAY 32
Latitude: 44-25.694830N44-25.323515N
Longitude: 070-48.948492W070-48.241258W
Elevation: 674.0 ft.656.2 ft.
Gradient: 0.5% UP
Traffic pattern: leftleft
Markings: basic, in fair conditionbasic, in fair condition
Touchdown point: yes, no lightsyes, no lights
Obstructions: 23 ft. tree, 600 ft. from runway, 140 ft. right of centerline, 17:1 slope to clear13 ft. tree, 450 ft. from runway, 140 ft. right of centerline, 19:1 slope to clear

Airport Ownership and Management from official FAA records

Ownership: Publicly-owned
Owner: TOWN OF BETHEL
PO BOX 1660
BETHEL, ME 04217
Phone 207-512-5552
Manager: CHRISTINE LANDES
TOWN OF BETHEL, PO BOX 1660
BETHEL, ME 04217
Phone 207-824-2669
EMERGENCY (POLICE PHONE) 1-800-733-1421. ARPT MGR 207-512-5552.

Airport Operational Statistics

Aircraft based on the field: 19
Single engine airplanes: 16
Multi engine airplanes: 1
Ultralights: 2
    
Aircraft operations: avg 91/week *
53% local general aviation
42% transient general aviation
5% military
* for 12-month period ending 08 August 2016

Additional Remarks

TURKEYS & GEESE ON OR IN VICINITY OF AIRPORT.
UNLGTD MOUNTAINOUS TERRAIN.
FOR RY CONDITIONS OR OTHER INFO, CTC AIRPORT INFORMATION LINE 207-512-5552.
POWERED PARACHUTE ACTIVITY OCASSIONALLY IN TERMINAL AREA.
NO FEES FOR PARKING, TIE-DOWN, OVERNIGHT ELECTRICAL A/C HOOK-UP.
ARPT SFC CONDS UNMON BTN 0200-1300Z DLY.
ACTVT AWOS-AV VIA PHONE OR KEY CTAF 3 TIMES.
UNMANNED ACFT WITHIN AN AREA DEFINED AS 3 NM RADIUS OF ARPT SFC-400' AGL DAILY SR-SS.

Instrument Procedures

There are no published instrument procedures at 0B1.

Some nearby airports with instrument procedures:

KBML - Berlin Regional Airport (18 nm NW)
81B - Oxford County Regional Airport (21 nm SE)
KIZG - Eastern Slopes Regional Airport (27 nm S)
KHIE - Mount Washington Regional Airport (32 nm W)
KLEW - Auburn/Lewiston Municipal Airport (32 nm SE)
 
Loc | Ops | Rwys | IFR | FBO | Links
Com | Nav | Svcs | Stats | Notes

Auburn-Lewiston Municipal Airport
 
Area around 0B1 (Bethel Regional Airport)
 
Road maps at: MapQuest Bing Google
 
Aerial photo
WARNING: Photo may not be current or correct
Aerial photo of 0B1 (Bethel Regional Airport)
Photo by Pete Chaisson Portland Flight Services
Photo taken 15-Aug-2014
looking southeast.

Do you have a better or more recent aerial photo of Bethel Regional Airport that you would like to share? If so, please send us your photo.

 
Sectional chart

 
Airport distance calculator
Flying to Bethel Regional Airport? Find the distance to fly.

From to 0B1

Sunrise and sunset
Times for 17-Dec-2017
 Local
(UTC-5)
 Zulu
(UTC)
Morning civil twilight06:4211:42
Sunrise07:1512:15
Sunset16:0421:04
Evening civil twilight16:3721:37

Current date and time
Zulu (UTC)  18-Dec-2017 04:40:35
Local (UTC-5)  17-Dec-2017 23:40:35
 
METAR
KBML 
19nm NW 
180352Z AUTO 00000KT 10SM CLR M21/M23 A3018 RMK AO2 SLP252 T12061228
KMWN 
22nm SW 
180350Z 30022KT 110SM FEW050 FEW070 BKN100 BKN120 OVC160 M12/M27 RMK
KIZG 
27nm S 
180354Z AUTO 00000KT 10SM CLR M16/M18 A3022 RMK AO2 SLP245 T11611178
KCWN 
29nm SW 
180358Z AUTO 00000KT 10SM CLR M03/M06 A2990 RMK AO2 SLP077 T10331057 $
KHIE 
32nm W 
180352Z AUTO 00000KT 10SM CLR M19/M22 A3019 RMK AO2 SLP251 T11941217
K8B0 
33nm N 
180415Z AUTO 28004KT 10SM CLR M17/M20 A3010 RMK AO2
KLEW 
33nm SE 
180356Z AUTO 00000KT 10SM CLR M14/M19 A3025 RMK AO2 SLP261 T11441194 410501183 FZRANO
TAF
KHIE 
32nm W 
171733Z 1718/1818 VRB03KT P6SM SCT250 FM180800 00000KT P6SM BKN050 FM181200 00000KT 3SM -SN BR OVC025
NOTAMs
Click for the latest NOTAMs
NOTAMs are issued by the DoD/FAA and will open in a separate window not controlled by AirNav.

 

 
 

FBO, Fuel Providers, and Aircraft Ground Support

  
 Business Name 
 
 Contact 
 
 Services / Description 
 
Fuel Prices
 
Comments
  
Town of Bethel (self-serve fuel) 207-512-5552
[web site]
[email]
Aviation fuel, Aircraft parking (ramp or tiedown), Passenger terminal and lounge, Courtesy transportation, Pilots lounge / snooze room, Public telephone, ...

More info about Town of Bethel (self-serve fuel)
independent
100LL
SS $3.99 
GUARANTEED
 
   3 read write
SS=Self service
Update Fuel Prices
 

Getting Around: Taxi, Limo, Rental Cars, Mass Transit

  
 Business Name 
 
 Contact 
 
Services / Description
 
Comments
  
Sunday River Stagecoach Shuttle Service 207-357-5783
[web site]
[email]
Ground transportation

More info about Sunday River Stagecoach Shuttle Service
 
   1 read write
 

Would you like to see your business listed on this page?

 If your business provides an interesting product or service to pilots, flight crews, aircraft, or users of the Bethel Regional Airport, you should consider listing it here.  To start the listing process, click on the button below
 
Add a business
 

Other Pages about Bethel Regional Airport

www.bethelregionalairport.com
www.bethelmaine.org/...
www.exploremaine.org/...
 
Update a link
 
Copyright © AirNav, LLC. All rights reserved. Privacy Policy  Contact